sensor_id;sensor_type;location;lat;lon;timestamp;P1;durP1;ratioP1;P2;durP2;ratioP2
28266;SDS011;15525;45.568;5.448;2024-02-28T00:01:55;45.58;;;22.70;;
28266;SDS011;15525;45.568;5.448;2024-02-28T00:04:20;47.78;;;23.48;;
28266;SDS011;15525;45.568;5.448;2024-02-28T00:06:46;46.47;;;22.42;;
28266;SDS011;15525;45.568;5.448;2024-02-28T00:09:11;45.33;;;22.63;;
28266;SDS011;15525;45.568;5.448;2024-02-28T00:11:45;44.17;;;23.20;;
28266;SDS011;15525;45.568;5.448;2024-02-28T00:14:14;51.50;;;24.27;;
28266;SDS011;15525;45.568;5.448;2024-02-28T00:16:40;45.85;;;22.83;;
28266;SDS011;15525;45.568;5.448;2024-02-28T00:19:06;43.75;;;22.83;;
28266;SDS011;15525;45.568;5.448;2024-02-28T00:21:31;42.63;;;22.15;;
28266;SDS011;15525;45.568;5.448;2024-02-28T00:23:57;45.85;;;23.08;;
28266;SDS011;15525;45.568;5.448;2024-02-28T00:26:22;42.92;;;22.80;;
28266;SDS011;15525;45.568;5.448;2024-02-28T00:28:48;46.20;;;23.23;;
28266;SDS011;15525;45.568;5.448;2024-02-28T00:31:13;47.15;;;22.75;;
28266;SDS011;15525;45.568;5.448;2024-02-28T00:33:39;43.45;;;22.67;;
28266;SDS011;15525;45.568;5.448;2024-02-28T00:36:04;44.05;;;22.35;;
28266;SDS011;15525;45.568;5.448;2024-02-28T00:38:29;48.50;;;23.23;;
28266;SDS011;15525;45.568;5.448;2024-02-28T00:40:55;44.65;;;23.23;;
28266;SDS011;15525;45.568;5.448;2024-02-28T00:43:20;43.72;;;22.55;;
28266;SDS011;15525;45.568;5.448;2024-02-28T00:45:45;46.45;;;24.23;;
28266;SDS011;15525;45.568;5.448;2024-02-28T00:48:11;48.42;;;24.67;;
28266;SDS011;15525;45.568;5.448;2024-02-28T00:50:36;49.13;;;23.63;;
28266;SDS011;15525;45.568;5.448;2024-02-28T00:53:01;47.67;;;23.42;;
28266;SDS011;15525;45.568;5.448;2024-02-28T00:55:27;47.92;;;23.63;;
28266;SDS011;15525;45.568;5.448;2024-02-28T00:57:53;45.03;;;22.83;;
28266;SDS011;15525;45.568;5.448;2024-02-28T01:00:18;52.85;;;25.42;;
28266;SDS011;15525;45.568;5.448;2024-02-28T01:02:44;50.25;;;24.73;;
28266;SDS011;15525;45.568;5.448;2024-02-28T01:05:09;46.42;;;23.55;;
28266;SDS011;15525;45.568;5.448;2024-02-28T01:07:35;49.72;;;24.42;;
28266;SDS011;15525;45.568;5.448;2024-02-28T01:10:01;46.60;;;23.23;;
28266;SDS011;15525;45.568;5.448;2024-02-28T01:12:27;46.25;;;23.23;;
28266;SDS011;15525;45.568;5.448;2024-02-28T01:14:52;51.30;;;24.02;;
28266;SDS011;15525;45.568;5.448;2024-02-28T01:17:18;47.28;;;23.45;;
28266;SDS011;15525;45.568;5.448;2024-02-28T01:19:44;47.75;;;24.35;;
28266;SDS011;15525;45.568;5.448;2024-02-28T01:22:09;46.92;;;23.65;;
28266;SDS011;15525;45.568;5.448;2024-02-28T01:24:34;48.08;;;24.35;;
28266;SDS011;15525;45.568;5.448;2024-02-28T01:27:00;48.08;;;24.20;;
28266;SDS011;15525;45.568;5.448;2024-02-28T01:29:26;49.28;;;24.55;;
28266;SDS011;15525;45.568;5.448;2024-02-28T01:31:51;47.47;;;23.98;;
28266;SDS011;15525;45.568;5.448;2024-02-28T01:34:17;49.40;;;23.38;;
28266;SDS011;15525;45.568;5.448;2024-02-28T01:36:43;45.88;;;23.83;;
28266;SDS011;15525;45.568;5.448;2024-02-28T01:39:09;45.80;;;24.52;;
28266;SDS011;15525;45.568;5.448;2024-02-28T01:41:34;52.80;;;23.88;;
28266;SDS011;15525;45.568;5.448;2024-02-28T01:43:59;52.75;;;26.00;;
28266;SDS011;15525;45.568;5.448;2024-02-28T01:46:26;53.13;;;24.85;;
28266;SDS011;15525;45.568;5.448;2024-02-28T01:48:52;53.47;;;24.85;;
28266;SDS011;15525;45.568;5.448;2024-02-28T01:51:19;55.20;;;26.40;;
28266;SDS011;15525;45.568;5.448;2024-02-28T01:53:47;52.30;;;24.75;;
28266;SDS011;15525;45.568;5.448;2024-02-28T01:56:14;48.85;;;25.17;;
28266;SDS011;15525;45.568;5.448;2024-02-28T01:58:42;61.15;;;27.30;;
28266;SDS011;15525;45.568;5.448;2024-02-28T02:01:10;55.72;;;26.50;;
28266;SDS011;15525;45.568;5.448;2024-02-28T02:03:36;54.55;;;27.20;;
28266;SDS011;15525;45.568;5.448;2024-02-28T02:06:02;57.97;;;26.80;;
28266;SDS011;15525;45.568;5.448;2024-02-28T02:08:28;52.42;;;25.90;;
28266;SDS011;15525;45.568;5.448;2024-02-28T02:10:54;52.70;;;25.73;;
28266;SDS011;15525;45.568;5.448;2024-02-28T02:13:19;56.17;;;26.42;;
28266;SDS011;15525;45.568;5.448;2024-02-28T02:15:45;53.13;;;26.05;;
28266;SDS011;15525;45.568;5.448;2024-02-28T02:18:10;53.40;;;25.92;;
28266;SDS011;15525;45.568;5.448;2024-02-28T02:20:36;55.25;;;26.27;;
28266;SDS011;15525;45.568;5.448;2024-02-28T02:23:07;53.97;;;26.50;;
28266;SDS011;15525;45.568;5.448;2024-02-28T02:25:33;59.08;;;26.42;;
28266;SDS011;15525;45.568;5.448;2024-02-28T02:27:58;57.70;;;28.60;;
28266;SDS011;15525;45.568;5.448;2024-02-28T02:30:24;55.83;;;27.58;;
28266;SDS011;15525;45.568;5.448;2024-02-28T02:32:49;54.53;;;27.10;;
28266;SDS011;15525;45.568;5.448;2024-02-28T02:35:15;63.90;;;28.35;;
28266;SDS011;15525;45.568;5.448;2024-02-28T02:37:43;56.70;;;26.48;;
28266;SDS011;15525;45.568;5.448;2024-02-28T02:40:13;55.60;;;27.13;;
28266;SDS011;15525;45.568;5.448;2024-02-28T02:42:39;56.47;;;27.08;;
28266;SDS011;15525;45.568;5.448;2024-02-28T02:45:04;53.63;;;25.33;;
28266;SDS011;15525;45.568;5.448;2024-02-28T02:47:30;57.78;;;27.40;;
28266;SDS011;15525;45.568;5.448;2024-02-28T02:49:56;59.70;;;27.80;;
28266;SDS011;15525;45.568;5.448;2024-02-28T02:52:21;56.63;;;26.50;;
28266;SDS011;15525;45.568;5.448;2024-02-28T02:54:46;58.95;;;26.55;;
28266;SDS011;15525;45.568;5.448;2024-02-28T02:57:12;57.08;;;26.25;;
28266;SDS011;15525;45.568;5.448;2024-02-28T02:59:37;58.45;;;26.80;;
28266;SDS011;15525;45.568;5.448;2024-02-28T03:02:03;56.10;;;26.75;;
28266;SDS011;15525;45.568;5.448;2024-02-28T03:04:29;56.95;;;26.23;;
28266;SDS011;15525;45.568;5.448;2024-02-28T03:06:54;59.20;;;26.63;;
28266;SDS011;15525;45.568;5.448;2024-02-28T03:09:19;60.22;;;27.08;;
28266;SDS011;15525;45.568;5.448;2024-02-28T03:11:45;56.65;;;27.48;;
28266;SDS011;15525;45.568;5.448;2024-02-28T03:14:10;59.38;;;27.23;;
28266;SDS011;15525;45.568;5.448;2024-02-28T03:16:40;59.53;;;26.77;;
28266;SDS011;15525;45.568;5.448;2024-02-28T03:19:06;61.25;;;26.88;;
28266;SDS011;15525;45.568;5.448;2024-02-28T03:21:31;62.72;;;28.55;;
28266;SDS011;15525;45.568;5.448;2024-02-28T03:23:57;59.72;;;27.30;;
28266;SDS011;15525;45.568;5.448;2024-02-28T03:26:22;59.88;;;27.35;;
28266;SDS011;15525;45.568;5.448;2024-02-28T03:28:48;60.83;;;27.27;;
28266;SDS011;15525;45.568;5.448;2024-02-28T03:31:13;63.17;;;28.92;;
28266;SDS011;15525;45.568;5.448;2024-02-28T03:33:39;62.70;;;27.85;;
28266;SDS011;15525;45.568;5.448;2024-02-28T03:36:04;57.22;;;27.70;;
28266;SDS011;15525;45.568;5.448;2024-02-28T03:38:30;60.72;;;27.95;;
28266;SDS011;15525;45.568;5.448;2024-02-28T03:40:55;59.03;;;26.35;;
28266;SDS011;15525;45.568;5.448;2024-02-28T03:43:20;60.40;;;28.58;;
28266;SDS011;15525;45.568;5.448;2024-02-28T03:45:46;62.25;;;27.58;;
28266;SDS011;15525;45.568;5.448;2024-02-28T03:48:11;68.63;;;29.70;;
28266;SDS011;15525;45.568;5.448;2024-02-28T03:50:36;63.42;;;28.48;;
28266;SDS011;15525;45.568;5.448;2024-02-28T03:53:02;65.50;;;28.70;;
28266;SDS011;15525;45.568;5.448;2024-02-28T03:55:28;60.15;;;27.48;;
28266;SDS011;15525;45.568;5.448;2024-02-28T03:57:54;60.40;;;27.10;;
28266;SDS011;15525;45.568;5.448;2024-02-28T04:00:19;60.72;;;27.20;;
28266;SDS011;15525;45.568;5.448;2024-02-28T04:02:45;63.15;;;29.85;;
28266;SDS011;15525;45.568;5.448;2024-02-28T04:05:10;59.60;;;27.27;;
28266;SDS011;15525;45.568;5.448;2024-02-28T04:07:35;62.97;;;28.80;;
28266;SDS011;15525;45.568;5.448;2024-02-28T04:10:01;60.03;;;27.23;;
28266;SDS011;15525;45.568;5.448;2024-02-28T04:12:26;63.65;;;27.73;;
28266;SDS011;15525;45.568;5.448;2024-02-28T04:14:52;59.45;;;27.80;;
28266;SDS011;15525;45.568;5.448;2024-02-28T04:17:17;61.70;;;28.70;;
28266;SDS011;15525;45.568;5.448;2024-02-28T04:19:43;65.00;;;28.23;;
28266;SDS011;15525;45.568;5.448;2024-02-28T04:22:08;67.85;;;29.13;;
28266;SDS011;15525;45.568;5.448;2024-02-28T04:24:33;66.35;;;28.88;;
28266;SDS011;15525;45.568;5.448;2024-02-28T04:26:59;66.45;;;29.00;;
28266;SDS011;15525;45.568;5.448;2024-02-28T04:29:25;63.47;;;28.20;;
28266;SDS011;15525;45.568;5.448;2024-02-28T04:31:50;65.63;;;27.33;;
28266;SDS011;15525;45.568;5.448;2024-02-28T04:34:16;65.43;;;27.20;;
28266;SDS011;15525;45.568;5.448;2024-02-28T04:36:41;67.43;;;28.48;;
28266;SDS011;15525;45.568;5.448;2024-02-28T04:39:06;63.72;;;28.40;;
28266;SDS011;15525;45.568;5.448;2024-02-28T04:41:32;64.75;;;28.45;;
28266;SDS011;15525;45.568;5.448;2024-02-28T04:43:59;65.97;;;29.00;;
28266;SDS011;15525;45.568;5.448;2024-02-28T04:46:24;62.40;;;28.13;;
28266;SDS011;15525;45.568;5.448;2024-02-28T04:48:49;62.28;;;27.30;;
28266;SDS011;15525;45.568;5.448;2024-02-28T04:51:15;64.93;;;27.88;;
28266;SDS011;15525;45.568;5.448;2024-02-28T04:53:42;61.67;;;27.35;;
28266;SDS011;15525;45.568;5.448;2024-02-28T04:56:08;68.35;;;28.65;;
28266;SDS011;15525;45.568;5.448;2024-02-28T04:58:33;68.25;;;29.08;;
28266;SDS011;15525;45.568;5.448;2024-02-28T05:01:00;62.70;;;28.38;;
28266;SDS011;15525;45.568;5.448;2024-02-28T05:03:25;63.72;;;28.00;;
28266;SDS011;15525;45.568;5.448;2024-02-28T05:05:50;67.50;;;29.00;;
28266;SDS011;15525;45.568;5.448;2024-02-28T05:08:16;62.13;;;28.15;;
28266;SDS011;15525;45.568;5.448;2024-02-28T05:10:44;68.82;;;29.42;;
28266;SDS011;15525;45.568;5.448;2024-02-28T05:13:09;68.60;;;29.50;;
28266;SDS011;15525;45.568;5.448;2024-02-28T05:15:35;62.97;;;27.65;;
28266;SDS011;15525;45.568;5.448;2024-02-28T05:18:00;68.93;;;30.25;;
28266;SDS011;15525;45.568;5.448;2024-02-28T05:20:25;64.18;;;28.38;;
28266;SDS011;15525;45.568;5.448;2024-02-28T05:22:51;65.85;;;28.58;;
28266;SDS011;15525;45.568;5.448;2024-02-28T05:25:16;66.03;;;28.45;;
28266;SDS011;15525;45.568;5.448;2024-02-28T05:27:42;70.00;;;29.90;;
28266;SDS011;15525;45.568;5.448;2024-02-28T05:30:07;60.78;;;27.98;;
28266;SDS011;15525;45.568;5.448;2024-02-28T05:32:33;66.68;;;28.40;;
28266;SDS011;15525;45.568;5.448;2024-02-28T05:34:58;62.55;;;27.77;;
28266;SDS011;15525;45.568;5.448;2024-02-28T05:37:24;65.13;;;29.33;;
28266;SDS011;15525;45.568;5.448;2024-02-28T05:39:50;61.92;;;28.02;;
28266;SDS011;15525;45.568;5.448;2024-02-28T05:42:15;65.28;;;27.45;;
28266;SDS011;15525;45.568;5.448;2024-02-28T05:44:46;69.75;;;28.27;;
28266;SDS011;15525;45.568;5.448;2024-02-28T05:47:15;64.75;;;28.52;;
28266;SDS011;15525;45.568;5.448;2024-02-28T05:49:40;63.42;;;28.33;;
28266;SDS011;15525;45.568;5.448;2024-02-28T05:52:06;64.60;;;28.58;;
28266;SDS011;15525;45.568;5.448;2024-02-28T05:54:31;65.30;;;27.60;;
28266;SDS011;15525;45.568;5.448;2024-02-28T05:56:58;71.55;;;29.30;;
28266;SDS011;15525;45.568;5.448;2024-02-28T05:59:24;67.43;;;29.38;;
28266;SDS011;15525;45.568;5.448;2024-02-28T06:01:50;66.70;;;29.13;;
28266;SDS011;15525;45.568;5.448;2024-02-28T06:04:15;67.57;;;28.67;;
28266;SDS011;15525;45.568;5.448;2024-02-28T06:06:41;66.60;;;27.90;;
28266;SDS011;15525;45.568;5.448;2024-02-28T06:09:07;65.35;;;28.77;;
28266;SDS011;15525;45.568;5.448;2024-02-28T06:11:32;66.20;;;29.75;;
28266;SDS011;15525;45.568;5.448;2024-02-28T06:13:58;69.72;;;29.38;;
28266;SDS011;15525;45.568;5.448;2024-02-28T06:16:24;68.93;;;30.13;;
28266;SDS011;15525;45.568;5.448;2024-02-28T06:18:49;68.88;;;30.50;;
28266;SDS011;15525;45.568;5.448;2024-02-28T06:21:15;69.93;;;28.85;;
28266;SDS011;15525;45.568;5.448;2024-02-28T06:23:40;65.63;;;28.95;;
28266;SDS011;15525;45.568;5.448;2024-02-28T06:26:06;71.32;;;29.95;;
28266;SDS011;15525;45.568;5.448;2024-02-28T06:28:31;69.38;;;29.10;;
28266;SDS011;15525;45.568;5.448;2024-02-28T06:30:57;69.18;;;28.27;;
28266;SDS011;15525;45.568;5.448;2024-02-28T06:33:22;68.55;;;29.17;;
28266;SDS011;15525;45.568;5.448;2024-02-28T06:35:48;69.82;;;27.90;;
28266;SDS011;15525;45.568;5.448;2024-02-28T06:38:14;69.93;;;29.63;;
28266;SDS011;15525;45.568;5.448;2024-02-28T06:40:39;68.97;;;29.98;;
28266;SDS011;15525;45.568;5.448;2024-02-28T06:43:06;65.45;;;29.52;;
28266;SDS011;15525;45.568;5.448;2024-02-28T06:45:31;67.53;;;28.50;;
28266;SDS011;15525;45.568;5.448;2024-02-28T06:47:58;67.28;;;28.95;;
28266;SDS011;15525;45.568;5.448;2024-02-28T06:50:23;66.47;;;28.98;;
28266;SDS011;15525;45.568;5.448;2024-02-28T06:52:48;71.45;;;30.33;;
28266;SDS011;15525;45.568;5.448;2024-02-28T06:55:14;68.45;;;28.48;;
28266;SDS011;15525;45.568;5.448;2024-02-28T06:57:40;77.07;;;30.10;;
28266;SDS011;15525;45.568;5.448;2024-02-28T07:00:07;72.30;;;30.73;;
28266;SDS011;15525;45.568;5.448;2024-02-28T07:02:34;70.20;;;28.50;;
28266;SDS011;15525;45.568;5.448;2024-02-28T07:05:00;70.30;;;29.05;;
28266;SDS011;15525;45.568;5.448;2024-02-28T07:07:25;65.57;;;29.17;;
28266;SDS011;15525;45.568;5.448;2024-02-28T07:09:51;72.20;;;29.77;;
28266;SDS011;15525;45.568;5.448;2024-02-28T07:12:16;72.38;;;29.60;;
28266;SDS011;15525;45.568;5.448;2024-02-28T07:14:41;71.75;;;29.63;;
28266;SDS011;15525;45.568;5.448;2024-02-28T07:17:07;73.63;;;30.60;;
28266;SDS011;15525;45.568;5.448;2024-02-28T07:19:32;73.03;;;29.05;;
28266;SDS011;15525;45.568;5.448;2024-02-28T07:21:58;75.82;;;31.55;;
28266;SDS011;15525;45.568;5.448;2024-02-28T07:24:23;70.10;;;28.77;;
28266;SDS011;15525;45.568;5.448;2024-02-28T07:26:49;71.60;;;30.10;;
28266;SDS011;15525;45.568;5.448;2024-02-28T07:29:16;71.75;;;29.40;;
28266;SDS011;15525;45.568;5.448;2024-02-28T07:31:41;71.13;;;30.27;;
28266;SDS011;15525;45.568;5.448;2024-02-28T07:34:06;71.45;;;29.77;;
28266;SDS011;15525;45.568;5.448;2024-02-28T07:36:33;63.30;;;28.42;;
28266;SDS011;15525;45.568;5.448;2024-02-28T07:38:59;72.72;;;28.98;;
28266;SDS011;15525;45.568;5.448;2024-02-28T07:41:24;73.80;;;29.55;;
28266;SDS011;15525;45.568;5.448;2024-02-28T07:43:49;72.63;;;29.45;;
28266;SDS011;15525;45.568;5.448;2024-02-28T07:46:15;73.80;;;29.48;;
28266;SDS011;15525;45.568;5.448;2024-02-28T07:48:40;72.30;;;29.23;;
28266;SDS011;15525;45.568;5.448;2024-02-28T07:51:06;71.68;;;28.67;;
28266;SDS011;15525;45.568;5.448;2024-02-28T07:53:32;69.43;;;28.00;;
28266;SDS011;15525;45.568;5.448;2024-02-28T07:55:57;69.68;;;28.77;;
28266;SDS011;15525;45.568;5.448;2024-02-28T07:58:22;71.07;;;29.20;;
28266;SDS011;15525;45.568;5.448;2024-02-28T08:00:49;69.38;;;28.30;;
28266;SDS011;15525;45.568;5.448;2024-02-28T08:03:15;72.97;;;30.27;;
28266;SDS011;15525;45.568;5.448;2024-02-28T08:05:41;76.20;;;30.45;;
28266;SDS011;15525;45.568;5.448;2024-02-28T08:08:08;74.65;;;29.15;;
28266;SDS011;15525;45.568;5.448;2024-02-28T08:10:34;69.97;;;29.45;;
28266;SDS011;15525;45.568;5.448;2024-02-28T08:13:02;69.97;;;29.30;;
28266;SDS011;15525;45.568;5.448;2024-02-28T08:15:27;72.03;;;29.42;;
28266;SDS011;15525;45.568;5.448;2024-02-28T08:17:52;69.70;;;29.75;;
28266;SDS011;15525;45.568;5.448;2024-02-28T08:20:19;70.90;;;29.10;;
28266;SDS011;15525;45.568;5.448;2024-02-28T08:22:44;68.20;;;28.65;;
28266;SDS011;15525;45.568;5.448;2024-02-28T08:25:09;72.97;;;30.38;;
28266;SDS011;15525;45.568;5.448;2024-02-28T08:27:36;69.47;;;29.73;;
28266;SDS011;15525;45.568;5.448;2024-02-28T08:30:02;75.38;;;30.35;;
28266;SDS011;15525;45.568;5.448;2024-02-28T08:32:28;72.72;;;29.42;;
28266;SDS011;15525;45.568;5.448;2024-02-28T08:34:53;68.85;;;29.42;;
28266;SDS011;15525;45.568;5.448;2024-02-28T08:37:20;71.20;;;29.95;;
28266;SDS011;15525;45.568;5.448;2024-02-28T08:39:45;69.07;;;29.65;;
28266;SDS011;15525;45.568;5.448;2024-02-28T08:42:10;66.57;;;28.77;;
28266;SDS011;15525;45.568;5.448;2024-02-28T08:44:37;71.60;;;29.42;;
28266;SDS011;15525;45.568;5.448;2024-02-28T08:47:02;71.65;;;28.33;;
28266;SDS011;15525;45.568;5.448;2024-02-28T08:49:28;68.47;;;30.15;;
28266;SDS011;15525;45.568;5.448;2024-02-28T08:51:53;70.00;;;28.75;;
28266;SDS011;15525;45.568;5.448;2024-02-28T08:54:19;67.32;;;28.35;;
28266;SDS011;15525;45.568;5.448;2024-02-28T08:56:44;70.43;;;30.23;;
28266;SDS011;15525;45.568;5.448;2024-02-28T08:59:09;72.32;;;29.65;;
28266;SDS011;15525;45.568;5.448;2024-02-28T09:01:35;68.38;;;29.50;;
28266;SDS011;15525;45.568;5.448;2024-02-28T09:04:01;66.80;;;29.42;;
28266;SDS011;15525;45.568;5.448;2024-02-28T09:06:27;69.18;;;29.88;;
28266;SDS011;15525;45.568;5.448;2024-02-28T09:08:52;70.07;;;29.40;;
28266;SDS011;15525;45.568;5.448;2024-02-28T09:11:18;72.88;;;30.48;;
28266;SDS011;15525;45.568;5.448;2024-02-28T09:13:43;67.00;;;29.63;;
28266;SDS011;15525;45.568;5.448;2024-02-28T09:16:08;70.97;;;29.05;;
28266;SDS011;15525;45.568;5.448;2024-02-28T09:18:34;63.50;;;27.02;;
28266;SDS011;15525;45.568;5.448;2024-02-28T09:21:00;71.57;;;29.00;;
28266;SDS011;15525;45.568;5.448;2024-02-28T09:23:25;68.18;;;29.33;;
28266;SDS011;15525;45.568;5.448;2024-02-28T09:25:51;71.47;;;29.17;;
28266;SDS011;15525;45.568;5.448;2024-02-28T09:28:16;68.28;;;29.30;;
28266;SDS011;15525;45.568;5.448;2024-02-28T09:30:42;71.68;;;30.00;;
28266;SDS011;15525;45.568;5.448;2024-02-28T09:33:08;70.40;;;29.15;;
28266;SDS011;15525;45.568;5.448;2024-02-28T09:35:34;67.55;;;29.38;;
28266;SDS011;15525;45.568;5.448;2024-02-28T09:38:01;68.32;;;29.33;;
28266;SDS011;15525;45.568;5.448;2024-02-28T09:40:27;70.95;;;30.55;;
28266;SDS011;15525;45.568;5.448;2024-02-28T09:42:53;76.90;;;32.47;;
28266;SDS011;15525;45.568;5.448;2024-02-28T09:45:26;69.90;;;28.98;;
28266;SDS011;15525;45.568;5.448;2024-02-28T09:47:52;74.07;;;30.90;;
28266;SDS011;15525;45.568;5.448;2024-02-28T09:50:18;70.95;;;29.63;;
28266;SDS011;15525;45.568;5.448;2024-02-28T09:52:44;77.60;;;31.27;;
28266;SDS011;15525;45.568;5.448;2024-02-28T09:55:10;75.88;;;29.95;;
28266;SDS011;15525;45.568;5.448;2024-02-28T09:57:35;70.15;;;29.83;;
28266;SDS011;15525;45.568;5.448;2024-02-28T10:00:02;72.43;;;29.05;;
28266;SDS011;15525;45.568;5.448;2024-02-28T10:02:29;78.15;;;31.05;;
28266;SDS011;15525;45.568;5.448;2024-02-28T10:04:55;74.85;;;31.10;;
28266;SDS011;15525;45.568;5.448;2024-02-28T10:07:22;78.38;;;31.90;;
28266;SDS011;15525;45.568;5.448;2024-02-28T10:09:48;72.88;;;30.58;;
28266;SDS011;15525;45.568;5.448;2024-02-28T10:12:14;76.28;;;30.63;;
28266;SDS011;15525;45.568;5.448;2024-02-28T10:14:39;69.63;;;29.25;;
28266;SDS011;15525;45.568;5.448;2024-02-28T10:17:05;76.82;;;31.33;;
28266;SDS011;15525;45.568;5.448;2024-02-28T10:19:30;77.40;;;30.38;;
28266;SDS011;15525;45.568;5.448;2024-02-28T10:21:56;73.30;;;30.90;;
28266;SDS011;15525;45.568;5.448;2024-02-28T10:24:23;75.88;;;31.17;;
28266;SDS011;15525;45.568;5.448;2024-02-28T10:26:49;78.45;;;31.02;;
28266;SDS011;15525;45.568;5.448;2024-02-28T10:29:23;72.70;;;29.85;;
28266;SDS011;15525;45.568;5.448;2024-02-28T10:31:52;86.22;;;31.98;;
28266;SDS011;15525;45.568;5.448;2024-02-28T10:34:17;79.63;;;30.77;;
28266;SDS011;15525;45.568;5.448;2024-02-28T10:36:43;75.80;;;31.65;;
28266;SDS011;15525;45.568;5.448;2024-02-28T10:39:10;79.03;;;31.23;;
28266;SDS011;15525;45.568;5.448;2024-02-28T10:41:40;75.30;;;30.38;;
28266;SDS011;15525;45.568;5.448;2024-02-28T10:44:05;75.90;;;31.95;;
28266;SDS011;15525;45.568;5.448;2024-02-28T10:46:31;82.63;;;31.42;;
28266;SDS011;15525;45.568;5.448;2024-02-28T10:48:56;81.10;;;31.13;;
28266;SDS011;15525;45.568;5.448;2024-02-28T10:51:23;77.35;;;30.42;;
28266;SDS011;15525;45.568;5.448;2024-02-28T10:54:11;74.63;;;31.48;;
28266;SDS011;15525;45.568;5.448;2024-02-28T10:56:38;74.55;;;31.05;;
28266;SDS011;15525;45.568;5.448;2024-02-28T10:59:05;77.40;;;31.15;;
28266;SDS011;15525;45.568;5.448;2024-02-28T11:01:32;75.35;;;30.83;;
28266;SDS011;15525;45.568;5.448;2024-02-28T11:04:00;75.45;;;29.92;;
28266;SDS011;15525;45.568;5.448;2024-02-28T11:06:26;74.90;;;29.95;;
28266;SDS011;15525;45.568;5.448;2024-02-28T11:08:58;78.93;;;30.20;;
28266;SDS011;15525;45.568;5.448;2024-02-28T11:11:34;75.43;;;30.95;;
28266;SDS011;15525;45.568;5.448;2024-02-28T11:14:06;86.20;;;32.55;;
28266;SDS011;15525;45.568;5.448;2024-02-28T11:17:07;79.05;;;31.45;;
28266;SDS011;15525;45.568;5.448;2024-02-28T11:19:33;76.97;;;30.83;;
28266;SDS011;15525;45.568;5.448;2024-02-28T11:22:02;75.05;;;31.35;;
28266;SDS011;15525;45.568;5.448;2024-02-28T11:24:34;76.78;;;30.40;;
28266;SDS011;15525;45.568;5.448;2024-02-28T11:27:01;76.78;;;32.08;;
28266;SDS011;15525;45.568;5.448;2024-02-28T11:29:31;82.05;;;31.65;;
28266;SDS011;15525;45.568;5.448;2024-02-28T11:31:58;81.20;;;31.75;;
28266;SDS011;15525;45.568;5.448;2024-02-28T11:34:24;76.72;;;30.67;;
28266;SDS011;15525;45.568;5.448;2024-02-28T11:36:50;78.22;;;31.63;;
28266;SDS011;15525;45.568;5.448;2024-02-28T11:39:20;69.60;;;30.65;;
28266;SDS011;15525;45.568;5.448;2024-02-28T11:41:52;76.03;;;29.63;;
28266;SDS011;15525;45.568;5.448;2024-02-28T11:44:24;76.57;;;30.75;;
28266;SDS011;15525;45.568;5.448;2024-02-28T11:46:50;74.30;;;30.80;;
28266;SDS011;15525;45.568;5.448;2024-02-28T11:49:20;77.70;;;30.55;;
28266;SDS011;15525;45.568;5.448;2024-02-28T11:51:47;75.95;;;30.70;;
28266;SDS011;15525;45.568;5.448;2024-02-28T11:54:14;78.53;;;31.48;;
28266;SDS011;15525;45.568;5.448;2024-02-28T11:56:40;73.38;;;31.27;;
28266;SDS011;15525;45.568;5.448;2024-02-28T11:59:06;76.40;;;31.52;;
28266;SDS011;15525;45.568;5.448;2024-02-28T12:01:38;74.38;;;30.50;;
28266;SDS011;15525;45.568;5.448;2024-02-28T12:04:06;76.22;;;31.92;;
28266;SDS011;15525;45.568;5.448;2024-02-28T12:06:43;72.30;;;30.38;;
28266;SDS011;15525;45.568;5.448;2024-02-28T12:09:11;74.82;;;30.52;;
28266;SDS011;15525;45.568;5.448;2024-02-28T12:11:40;70.85;;;29.70;;
28266;SDS011;15525;45.568;5.448;2024-02-28T12:14:06;65.13;;;27.50;;
28266;SDS011;15525;45.568;5.448;2024-02-28T12:16:40;74.28;;;29.42;;
28266;SDS011;15525;45.568;5.448;2024-02-28T12:19:10;67.75;;;29.75;;
28266;SDS011;15525;45.568;5.448;2024-02-28T12:21:38;67.47;;;29.10;;
28266;SDS011;15525;45.568;5.448;2024-02-28T12:24:08;60.88;;;28.38;;
28266;SDS011;15525;45.568;5.448;2024-02-28T12:26:37;63.97;;;29.38;;
28266;SDS011;15525;45.568;5.448;2024-02-28T12:29:04;64.00;;;28.30;;
28266;SDS011;15525;45.568;5.448;2024-02-28T12:31:34;66.22;;;28.83;;
28266;SDS011;15525;45.568;5.448;2024-02-28T12:34:02;66.47;;;28.95;;
28266;SDS011;15525;45.568;5.448;2024-02-28T12:36:31;62.90;;;26.90;;
28266;SDS011;15525;45.568;5.448;2024-02-28T12:38:58;68.25;;;29.05;;
28266;SDS011;15525;45.568;5.448;2024-02-28T12:41:25;63.50;;;27.98;;
28266;SDS011;15525;45.568;5.448;2024-02-28T12:43:58;65.35;;;29.13;;
28266;SDS011;15525;45.568;5.448;2024-02-28T12:46:23;65.32;;;27.98;;
28266;SDS011;15525;45.568;5.448;2024-02-28T12:48:49;63.75;;;28.10;;
28266;SDS011;15525;45.568;5.448;2024-02-28T12:54:05;62.83;;;27.90;;
28266;SDS011;15525;45.568;5.448;2024-02-28T12:56:43;60.42;;;27.90;;
28266;SDS011;15525;45.568;5.448;2024-02-28T12:59:22;64.45;;;27.48;;
28266;SDS011;15525;45.568;5.448;2024-02-28T13:01:51;63.38;;;28.13;;
28266;SDS011;15525;45.568;5.448;2024-02-28T13:04:17;64.15;;;27.92;;
28266;SDS011;15525;45.568;5.448;2024-02-28T13:06:46;58.55;;;27.73;;
28266;SDS011;15525;45.568;5.448;2024-02-28T13:09:13;62.13;;;27.45;;
28266;SDS011;15525;45.568;5.448;2024-02-28T13:11:47;62.35;;;27.33;;
28266;SDS011;15525;45.568;5.448;2024-02-28T13:14:16;63.65;;;28.83;;
28266;SDS011;15525;45.568;5.448;2024-02-28T13:16:42;69.72;;;29.23;;
28266;SDS011;15525;45.568;5.448;2024-02-28T13:19:10;62.17;;;27.77;;
28266;SDS011;15525;45.568;5.448;2024-02-28T13:21:39;64.85;;;27.70;;
28266;SDS011;15525;45.568;5.448;2024-02-28T13:24:04;64.50;;;28.73;;
28266;SDS011;15525;45.568;5.448;2024-02-28T13:26:30;62.08;;;27.85;;
28266;SDS011;15525;45.568;5.448;2024-02-28T13:28:55;63.80;;;27.38;;
28266;SDS011;15525;45.568;5.448;2024-02-28T13:31:21;61.72;;;26.25;;
28266;SDS011;15525;45.568;5.448;2024-02-28T13:33:46;61.08;;;27.92;;
28266;SDS011;15525;45.568;5.448;2024-02-28T13:36:13;61.60;;;28.02;;
28266;SDS011;15525;45.568;5.448;2024-02-28T13:38:39;58.70;;;27.45;;
28266;SDS011;15525;45.568;5.448;2024-02-28T13:41:04;58.50;;;27.13;;
28266;SDS011;15525;45.568;5.448;2024-02-28T13:43:29;65.85;;;29.13;;
28266;SDS011;15525;45.568;5.448;2024-02-28T13:45:55;60.13;;;27.40;;
28266;SDS011;15525;45.568;5.448;2024-02-28T13:48:25;64.15;;;29.15;;
28266;SDS011;15525;45.568;5.448;2024-02-28T13:50:52;57.17;;;27.13;;
28266;SDS011;15525;45.568;5.448;2024-02-28T13:53:17;61.30;;;27.83;;
28266;SDS011;15525;45.568;5.448;2024-02-28T13:55:43;57.50;;;26.75;;
28266;SDS011;15525;45.568;5.448;2024-02-28T13:58:12;59.20;;;26.77;;
28266;SDS011;15525;45.568;5.448;2024-02-28T14:00:39;60.97;;;27.17;;
28266;SDS011;15525;45.568;5.448;2024-02-28T14:03:05;57.30;;;27.05;;
28266;SDS011;15525;45.568;5.448;2024-02-28T14:05:34;54.78;;;25.33;;
28266;SDS011;15525;45.568;5.448;2024-02-28T14:07:59;56.05;;;26.52;;
28266;SDS011;15525;45.568;5.448;2024-02-28T14:10:25;55.53;;;26.63;;
28266;SDS011;15525;45.568;5.448;2024-02-28T14:12:51;55.35;;;26.88;;
28266;SDS011;15525;45.568;5.448;2024-02-28T14:15:18;56.20;;;25.80;;
28266;SDS011;15525;45.568;5.448;2024-02-28T14:17:44;60.13;;;28.08;;
28266;SDS011;15525;45.568;5.448;2024-02-28T14:20:09;56.40;;;26.20;;